createdAt,value
2023-05-10T00:02:54.546Z,16.77
2023-05-10T00:07:56.298Z,16.58
2023-05-10T00:12:58.139Z,16.50
2023-05-10T00:18:00.022Z,16.40
2023-05-10T00:23:01.955Z,16.29
2023-05-10T00:28:03.850Z,16.21
2023-05-10T00:33:05.689Z,16.23
2023-05-10T00:38:07.754Z,16.28
2023-05-10T00:43:09.457Z,16.31
2023-05-10T00:48:11.280Z,16.34
2023-05-10T00:53:13.019Z,16.34
2023-05-10T00:58:15.303Z,16.30
2023-05-10T01:03:20.133Z,16.30
2023-05-10T01:08:23.120Z,16.23
2023-05-10T01:13:38.910Z,16.21
2023-05-10T01:18:42.792Z,16.21
2023-05-10T01:24:22.101Z,16.23
2023-05-10T01:29:43.280Z,16.24
2023-05-10T01:35:01.755Z,16.25
2023-05-10T01:40:31.237Z,16.22
2023-05-10T01:45:38.750Z,16.15
2023-05-10T01:50:44.132Z,16.13
2023-05-10T01:55:49.916Z,16.16
2023-05-10T02:00:53.299Z,16.16
2023-05-10T02:05:57.432Z,16.15
2023-05-10T02:11:00.163Z,16.18
2023-05-10T02:16:05.604Z,16.15
2023-05-10T02:21:09.362Z,16.12
2023-05-10T02:26:15.221Z,16.12
2023-05-10T02:31:18.883Z,16.11
2023-05-10T02:36:23.708Z,16.12
2023-05-10T02:41:27.353Z,16.10
2023-05-10T02:46:29.717Z,16.08
2023-05-10T02:51:35.954Z,16.11
2023-05-10T02:56:43.944Z,16.11
2023-05-10T03:01:46.489Z,16.07
2023-05-10T03:06:48.795Z,15.98
2023-05-10T03:12:15.506Z,15.91
2023-05-10T03:17:36.185Z,15.90
2023-05-10T03:22:41.880Z,15.88
2023-05-10T03:27:45.055Z,15.82
2023-05-10T03:32:46.902Z,15.80
2023-05-10T03:37:51.371Z,15.78
2023-05-10T03:42:53.250Z,15.73
2023-05-10T03:47:55.016Z,15.69
2023-05-10T03:52:58.405Z,15.64
2023-05-10T03:58:00.152Z,15.59
2023-05-10T04:03:02.274Z,15.55
2023-05-10T04:08:05.117Z,15.58
2023-05-10T04:13:07.264Z,15.51
2023-05-10T04:18:09.050Z,15.38
2023-05-10T04:23:10.992Z,15.15
2023-05-10T04:28:12.803Z,15.02
2023-05-10T04:33:15.330Z,14.96
2023-05-10T04:38:17.028Z,14.94
2023-05-10T04:43:19.325Z,14.87
2023-05-10T04:48:21.010Z,14.82
2023-05-10T04:53:22.902Z,14.89
2023-05-10T04:58:24.555Z,14.84
2023-05-10T05:03:26.365Z,14.82
2023-05-10T05:08:28.219Z,14.70
2023-05-10T05:13:30.356Z,14.66
2023-05-10T05:18:32.203Z,14.54
2023-05-10T05:23:34.042Z,14.57
2023-05-10T05:28:38.203Z,14.60
2023-05-10T05:33:40.117Z,14.56
2023-05-10T05:38:41.859Z,14.57
2023-05-10T05:43:43.753Z,14.52
2023-05-10T05:48:45.593Z,14.46
2023-05-10T05:53:47.937Z,14.48
2023-05-10T05:58:50.580Z,14.42
2023-05-10T06:03:53.506Z,14.28
2023-05-10T06:08:55.900Z,14.24
2023-05-10T06:13:57.873Z,14.32
2023-05-10T06:19:00.275Z,14.29
2023-05-10T06:24:01.988Z,14.35
2023-05-10T06:29:03.647Z,14.45
2023-05-10T06:34:08.869Z,14.60
2023-05-10T06:39:12.575Z,14.61
2023-05-10T06:44:14.311Z,14.58
2023-05-10T06:49:16.059Z,14.63
2023-05-10T06:54:17.716Z,14.74
2023-05-10T06:59:20.384Z,14.76
2023-05-10T07:04:22.118Z,14.87
2023-05-10T07:09:25.306Z,14.81
2023-05-10T07:14:27.076Z,14.86
2023-05-10T07:19:30.376Z,15.06
2023-05-10T07:24:34.067Z,15.17
2023-05-10T07:29:36.860Z,15.33
2023-05-10T07:34:38.918Z,15.31
2023-05-10T07:39:40.621Z,15.37
2023-05-10T07:44:42.843Z,15.29
2023-05-10T07:49:44.856Z,15.37
2023-05-10T07:54:46.517Z,15.44
2023-05-10T07:59:48.496Z,15.60
2023-05-10T08:04:50.199Z,15.77
2023-05-10T08:09:52.111Z,15.86
2023-05-10T08:14:53.847Z,15.89
2023-05-10T08:19:55.620Z,15.78
2023-05-10T08:24:57.382Z,15.52
2023-05-10T08:29:59.100Z,15.53
2023-05-10T08:35:00.845Z,15.49
2023-05-10T08:40:02.790Z,15.48
2023-05-10T08:45:05.821Z,15.65
2023-05-10T08:50:08.141Z,15.79
2023-05-10T08:55:10.487Z,15.91
2023-05-10T09:00:13.047Z,16.10
2023-05-10T09:05:17.110Z,15.97
2023-05-10T09:10:20.548Z,15.80
2023-05-10T09:15:22.465Z,15.86
2023-05-10T09:20:25.326Z,15.86
2023-05-10T09:25:26.953Z,16.08
2023-05-10T09:30:32.177Z,16.32
2023-05-10T09:35:34.609Z,16.55
2023-05-10T09:40:36.355Z,16.52
2023-05-10T09:45:39.128Z,16.47
2023-05-10T09:50:41.311Z,16.39
2023-05-10T09:55:47.975Z,16.40
2023-05-10T10:00:53.211Z,16.46
2023-05-10T10:05:56.935Z,16.63
2023-05-10T10:10:58.688Z,16.77
2023-05-10T10:16:00.691Z,16.92
2023-05-10T10:21:03.138Z,17.19
2023-05-10T10:26:05.769Z,17.59
2023-05-10T10:31:27.480Z,17.60
2023-05-10T10:36:29.477Z,17.51
2023-05-10T10:41:36.469Z,17.60
2023-05-10T10:47:09.179Z,17.62
2023-05-10T10:52:34.304Z,17.58
2023-05-10T10:57:48.260Z,17.61
2023-05-10T11:02:57.119Z,17.65
2023-05-10T11:08:00.867Z,17.56
2023-05-10T11:13:11.064Z,17.35
2023-05-10T11:18:21.110Z,17.18
2023-05-10T11:23:23.354Z,17.22
2023-05-10T11:28:25.319Z,17.36
2023-05-10T11:33:27.146Z,17.49
2023-05-10T11:38:28.832Z,17.61
2023-05-10T11:43:31.725Z,17.56
2023-05-10T11:48:34.233Z,17.36
2023-05-10T11:53:36.120Z,16.93
2023-05-10T11:58:39.190Z,16.54
2023-05-10T12:03:41.411Z,16.16
2023-05-10T12:08:53.525Z,15.97
2023-05-10T12:13:57.280Z,15.80
2023-05-10T12:19:00.852Z,15.72
2023-05-10T12:24:04.700Z,15.75
2023-05-10T12:29:20.015Z,15.97
2023-05-10T12:34:32.199Z,16.15
2023-05-10T12:39:45.867Z,16.34
2023-05-10T12:44:47.689Z,16.49
2023-05-10T12:49:49.377Z,16.67
2023-05-10T12:54:51.174Z,16.89
2023-05-10T12:59:52.836Z,17.16
2023-05-10T13:04:54.559Z,17.45
2023-05-10T13:09:56.373Z,17.65
2023-05-10T13:14:58.403Z,17.63
2023-05-10T13:20:00.135Z,17.66
2023-05-10T13:25:02.529Z,17.77
2023-05-10T13:30:04.980Z,17.86
2023-05-10T13:35:07.008Z,17.68
2023-05-10T13:40:09.225Z,17.52
2023-05-10T13:45:13.285Z,17.67
2023-05-10T13:50:15.434Z,17.88
2023-05-10T13:55:17.367Z,17.90
2023-05-10T14:00:19.536Z,17.93
2023-05-10T14:05:25.498Z,17.81
2023-05-10T14:10:28.173Z,17.65
2023-05-10T14:15:29.965Z,17.58
2023-05-10T14:20:33.085Z,17.51
2023-05-10T14:25:35.549Z,17.38
2023-05-10T14:30:37.513Z,17.04
2023-05-10T14:35:39.952Z,16.67
2023-05-10T14:40:42.239Z,15.98
2023-05-10T14:45:44.327Z,15.44
2023-05-10T14:50:46.316Z,15.03
2023-05-10T14:55:48.190Z,14.74
2023-05-10T15:00:49.796Z,14.64
2023-05-10T15:05:52.994Z,14.73
2023-05-10T15:10:56.671Z,14.91
2023-05-10T15:15:58.328Z,15.06
2023-05-10T15:21:00.198Z,15.29
2023-05-10T15:26:02.189Z,15.42
2023-05-10T15:31:04.011Z,15.55
2023-05-10T15:36:05.844Z,15.70
2023-05-10T15:41:07.654Z,15.82
2023-05-10T15:46:09.555Z,15.88
2023-05-10T15:51:11.414Z,15.89
2023-05-10T15:56:13.236Z,15.91
2023-05-10T16:01:15.063Z,15.95
2023-05-10T16:06:17.350Z,15.81
2023-05-10T16:11:19.070Z,15.89
2023-05-10T16:16:20.917Z,15.93
2023-05-10T16:21:22.954Z,15.88
2023-05-10T16:26:24.743Z,15.19
2023-05-10T16:31:26.479Z,14.93
2023-05-10T16:36:29.511Z,14.67
2023-05-10T16:41:34.858Z,14.37
2023-05-10T16:46:36.822Z,14.13
2023-05-10T16:51:38.540Z,14.08
2023-05-10T16:56:40.845Z,14.05
2023-05-10T17:01:42.533Z,14.11
2023-05-10T17:06:44.696Z,14.07
2023-05-10T17:11:46.648Z,14.09
2023-05-10T17:16:48.432Z,14.02
2023-05-10T17:21:50.311Z,13.97
2023-05-10T17:26:52.033Z,13.87
2023-05-10T17:31:53.873Z,13.83
2023-05-10T17:36:55.560Z,13.83
2023-05-10T17:41:57.271Z,13.80
2023-05-10T17:46:59.203Z,13.77
2023-05-10T17:52:01.280Z,13.55
2023-05-10T17:57:03.728Z,13.63
2023-05-10T18:02:05.732Z,13.54
2023-05-10T18:07:07.856Z,13.54
2023-05-10T18:12:09.705Z,13.44
2023-05-10T18:17:11.435Z,13.41
2023-05-10T18:22:13.355Z,13.37
2023-05-10T18:27:15.144Z,13.42
2023-05-10T18:32:17.415Z,13.39
2023-05-10T18:37:19.384Z,13.32
2023-05-10T18:42:21.125Z,13.35
2023-05-10T18:47:23.114Z,13.30
2023-05-10T18:52:25.011Z,13.18
2023-05-10T18:57:27.739Z,13.23
2023-05-10T19:02:29.996Z,13.28
2023-05-10T19:07:32.053Z,13.31
2023-05-10T19:12:34.160Z,13.33
2023-05-10T19:17:36.738Z,13.36
2023-05-10T19:22:54.238Z,13.41
2023-05-10T19:28:01.369Z,13.45
2023-05-10T19:33:05.060Z,13.52
2023-05-10T19:38:07.046Z,13.54
2023-05-10T19:43:09.319Z,13.54
2023-05-10T19:48:11.151Z,13.51
2023-05-10T19:53:13.115Z,13.50
2023-05-10T19:58:14.863Z,13.44
2023-05-10T20:03:17.181Z,13.38
2023-05-10T20:08:18.985Z,13.40
2023-05-10T20:13:21.134Z,13.35
2023-05-10T20:18:23.508Z,13.34
2023-05-10T20:23:26.083Z,13.24
2023-05-10T20:28:28.929Z,13.26
2023-05-10T20:33:30.840Z,13.24
2023-05-10T20:38:32.495Z,13.24
2023-05-10T20:43:34.323Z,13.25
2023-05-10T20:48:36.025Z,13.20
2023-05-10T20:53:37.757Z,13.23
2023-05-10T20:58:39.432Z,13.24
2023-05-10T21:03:41.153Z,13.23
2023-05-10T21:08:43.477Z,13.06
2023-05-10T21:13:45.619Z,12.97
2023-05-10T21:18:47.318Z,12.90
2023-05-10T21:23:49.173Z,12.79
2023-05-10T21:28:51.448Z,12.83
2023-05-10T21:33:53.099Z,12.79
2023-05-10T21:38:54.907Z,12.79
2023-05-10T21:43:57.261Z,12.73
2023-05-10T21:49:01.512Z,12.78
2023-05-10T21:54:03.208Z,12.76
2023-05-10T21:59:05.018Z,12.81
2023-05-10T22:04:06.701Z,12.74
2023-05-10T22:09:08.591Z,12.66
2023-05-10T22:14:10.305Z,12.67
2023-05-10T22:19:12.299Z,12.67
2023-05-10T22:24:14.304Z,12.74
2023-05-10T22:29:16.101Z,12.85
2023-05-10T22:34:18.745Z,12.84
2023-05-10T22:39:20.450Z,12.84
2023-05-10T22:44:22.300Z,12.84
2023-05-10T22:49:24.815Z,12.87
2023-05-10T22:54:26.397Z,12.94
2023-05-10T22:59:28.647Z,12.91
2023-05-10T23:04:30.686Z,12.93
2023-05-10T23:09:32.338Z,12.89
2023-05-10T23:14:34.035Z,12.88
2023-05-10T23:19:36.021Z,12.89
2023-05-10T23:24:39.106Z,12.88
2023-05-10T23:29:40.840Z,12.85
2023-05-10T23:34:42.497Z,12.84
2023-05-10T23:39:44.711Z,12.85
2023-05-10T23:44:46.850Z,12.85
2023-05-10T23:49:50.212Z,12.89
2023-05-10T23:54:52.510Z,12.92
2023-05-10T23:59:54.407Z,12.94
